createdAt,value
2022-11-29T00:01:40.322Z,1.87
2022-11-29T00:04:08.632Z,1.88
2022-11-29T00:06:37.213Z,1.88
2022-11-29T00:09:07.320Z,1.88
2022-11-29T00:11:56.008Z,1.87
2022-11-29T00:14:26.313Z,1.87
2022-11-29T00:16:55.948Z,1.84
2022-11-29T00:19:24.304Z,1.83
2022-11-29T00:21:53.089Z,1.81
2022-11-29T00:24:21.597Z,1.81
2022-11-29T00:26:50.261Z,1.81
2022-11-29T00:29:18.820Z,1.81
2022-11-29T00:31:47.221Z,1.80
2022-11-29T00:34:15.708Z,1.80
2022-11-29T00:36:44.497Z,1.80
2022-11-29T00:39:13.086Z,1.81
2022-11-29T00:41:41.356Z,1.81
2022-11-29T00:44:13.987Z,1.81
2022-11-29T00:46:45.485Z,1.81
2022-11-29T00:49:14.377Z,1.82
2022-11-29T00:51:42.753Z,1.83
2022-11-29T00:54:11.337Z,1.84
2022-11-29T00:56:39.921Z,1.87
2022-11-29T00:59:08.797Z,1.90
2022-11-29T01:01:37.369Z,1.90
2022-11-29T01:04:06.091Z,1.90
2022-11-29T01:06:34.359Z,1.90
2022-11-29T01:09:03.149Z,1.88
2022-11-29T01:11:31.732Z,1.85
2022-11-29T01:14:01.911Z,1.84
2022-11-29T01:16:31.116Z,1.84
2022-11-29T01:19:00.966Z,1.85
2022-11-29T01:21:29.667Z,1.85
2022-11-29T01:23:59.877Z,1.85
2022-11-29T01:26:29.174Z,1.85
2022-11-29T01:28:58.068Z,1.86
2022-11-29T01:31:31.224Z,1.87
2022-11-29T01:34:01.222Z,1.86
2022-11-29T01:36:30.064Z,1.86
2022-11-29T01:39:02.134Z,1.84
2022-11-29T01:41:33.041Z,1.83
2022-11-29T01:44:01.448Z,1.81
2022-11-29T01:46:35.050Z,1.81
2022-11-29T01:49:15.413Z,1.82
2022-11-29T01:51:46.554Z,1.83
2022-11-29T01:54:15.548Z,1.84
2022-11-29T01:56:45.258Z,1.87
2022-11-29T01:59:16.048Z,1.88
2022-11-29T02:01:44.852Z,1.90
2022-11-29T02:04:14.191Z,1.91
2022-11-29T02:06:42.663Z,1.91
2022-11-29T02:09:20.260Z,1.90
2022-11-29T02:12:11.615Z,1.91
2022-11-29T02:15:00.951Z,1.91
2022-11-29T02:17:48.169Z,1.93
2022-11-29T02:20:37.951Z,1.95
2022-11-29T02:23:25.377Z,1.98
2022-11-29T02:25:53.996Z,2.00
2022-11-29T02:28:37.086Z,2.01
2022-11-29T02:31:24.183Z,2.03
2022-11-29T02:34:11.321Z,2.02
2022-11-29T02:36:40.008Z,2.00
2022-11-29T02:39:14.344Z,1.98
2022-11-29T02:41:45.982Z,1.97
2022-11-29T02:44:17.741Z,1.96
2022-11-29T02:46:58.481Z,1.94
2022-11-29T02:49:45.834Z,1.93
2022-11-29T02:52:21.571Z,1.93
2022-11-29T02:54:58.672Z,1.92
2022-11-29T02:57:41.535Z,1.94
2022-11-29T03:00:20.581Z,1.94
2022-11-29T03:02:52.056Z,1.95
2022-11-29T03:05:29.360Z,1.95
2022-11-29T03:08:06.741Z,1.93
2022-11-29T03:10:55.340Z,1.91
2022-11-29T03:13:24.094Z,1.90
2022-11-29T03:16:12.970Z,1.89
2022-11-29T03:18:44.503Z,1.89
2022-11-29T03:21:25.376Z,1.89
2022-11-29T03:23:55.556Z,1.90
2022-11-29T03:26:32.576Z,1.91
2022-11-29T03:29:10.856Z,1.91
2022-11-29T03:31:52.993Z,1.92
2022-11-29T03:34:31.463Z,1.94
2022-11-29T03:37:02.636Z,1.96
2022-11-29T03:39:37.481Z,1.98
2022-11-29T03:42:13.334Z,2.01
2022-11-29T03:44:47.430Z,2.01
2022-11-29T03:47:19.412Z,2.02
2022-11-29T03:50:07.117Z,2.03
2022-11-29T03:52:44.945Z,2.03
2022-11-29T03:55:22.642Z,2.02
2022-11-29T03:58:02.395Z,2.01
2022-11-29T04:00:35.990Z,1.99
2022-11-29T04:03:04.365Z,1.98
2022-11-29T04:05:51.695Z,1.97
2022-11-29T04:08:23.143Z,1.97
2022-11-29T04:11:18.760Z,1.98
2022-11-29T04:14:05.061Z,2.00
2022-11-29T04:17:05.799Z,2.00
2022-11-29T04:19:37.149Z,2.01
2022-11-29T04:22:17.999Z,2.03
2022-11-29T04:24:46.765Z,2.02
2022-11-29T04:27:34.504Z,2.02
2022-11-29T04:30:12.341Z,2.00
2022-11-29T04:32:59.611Z,1.97
2022-11-29T04:35:34.396Z,1.94
2022-11-29T04:38:24.074Z,1.92
2022-11-29T04:40:55.932Z,1.92
2022-11-29T04:43:30.967Z,1.92
2022-11-29T04:46:18.229Z,1.91
2022-11-29T04:48:56.060Z,1.92
2022-11-29T04:51:24.680Z,1.94
2022-11-29T04:54:11.896Z,1.95
2022-11-29T04:56:43.552Z,1.95
2022-11-29T04:59:25.345Z,1.95
2022-11-29T05:02:05.856Z,1.96
2022-11-29T05:04:53.438Z,1.95
2022-11-29T05:07:29.756Z,1.95
2022-11-29T05:10:01.027Z,1.94
2022-11-29T05:12:44.995Z,1.94
2022-11-29T05:15:19.589Z,1.93
2022-11-29T05:17:57.606Z,1.93
2022-11-29T05:20:49.045Z,1.92
2022-11-29T05:23:34.228Z,1.93
2022-11-29T05:26:21.338Z,1.92
2022-11-29T05:28:52.899Z,1.94
2022-11-29T05:31:40.317Z,1.94
2022-11-29T05:34:33.228Z,1.91
2022-11-29T05:37:15.781Z,1.91
2022-11-29T05:39:52.048Z,1.91
2022-11-29T05:42:29.846Z,1.92
2022-11-29T05:45:04.370Z,1.93
2022-11-29T05:47:51.692Z,1.94
2022-11-29T05:50:20.332Z,1.96
2022-11-29T05:53:07.068Z,1.97
2022-11-29T05:56:01.881Z,1.97
2022-11-29T05:58:36.206Z,1.98
2022-11-29T06:01:14.722Z,1.99
2022-11-29T06:03:52.522Z,1.99
2022-11-29T06:06:41.076Z,2.02
2022-11-29T06:09:22.462Z,2.03
2022-11-29T06:11:55.246Z,2.05
2022-11-29T06:14:34.273Z,2.07
2022-11-29T06:17:18.830Z,2.11
2022-11-29T06:19:57.049Z,2.16
2022-11-29T06:22:46.409Z,2.20
2022-11-29T06:25:18.485Z,2.23
2022-11-29T06:27:59.553Z,2.25
2022-11-29T06:30:35.168Z,2.26
2022-11-29T06:33:09.622Z,2.28
2022-11-29T06:35:41.178Z,2.31
2022-11-29T06:38:21.847Z,2.34
2022-11-29T06:40:50.907Z,2.36
2022-11-29T06:43:19.318Z,2.39
2022-11-29T06:45:50.670Z,2.42
2022-11-29T06:48:24.445Z,2.46
2022-11-29T06:50:53.057Z,2.49
2022-11-29T06:53:40.178Z,2.52
2022-11-29T06:56:16.748Z,2.54
2022-11-29T06:58:45.434Z,2.54
2022-11-29T07:01:27.945Z,2.55
2022-11-29T07:04:19.320Z,2.58
2022-11-29T07:06:48.053Z,2.62
2022-11-29T07:09:18.700Z,2.64
2022-11-29T07:11:47.573Z,2.66
2022-11-29T07:14:16.362Z,2.69
2022-11-29T07:16:44.946Z,2.72
2022-11-29T07:19:19.777Z,2.74
2022-11-29T07:21:51.338Z,2.78
2022-11-29T07:24:34.053Z,2.82
2022-11-29T07:27:25.775Z,2.84
2022-11-29T07:30:05.621Z,2.87
2022-11-29T07:32:48.806Z,2.91
2022-11-29T07:35:37.604Z,2.95
2022-11-29T07:38:10.387Z,3.00
2022-11-29T07:40:39.176Z,3.03
2022-11-29T07:43:13.608Z,3.07
2022-11-29T07:45:42.188Z,3.11
2022-11-29T07:48:11.381Z,3.14
2022-11-29T07:50:40.168Z,3.15
2022-11-29T07:53:15.989Z,3.17
2022-11-29T07:55:45.020Z,3.19
2022-11-29T07:58:14.215Z,3.20
2022-11-29T08:00:43.462Z,3.20
2022-11-29T08:03:12.308Z,3.22
2022-11-29T08:05:41.092Z,3.25
2022-11-29T08:08:09.577Z,3.27
2022-11-29T08:10:38.874Z,3.28
2022-11-29T08:13:07.254Z,3.30
2022-11-29T08:15:35.840Z,3.35
2022-11-29T08:18:04.587Z,3.40
2022-11-29T08:20:32.902Z,3.44
2022-11-29T08:23:01.487Z,3.49
2022-11-29T08:25:30.079Z,3.52
2022-11-29T08:27:58.501Z,3.54
2022-11-29T08:30:27.035Z,3.55
2022-11-29T08:32:55.823Z,3.58
2022-11-29T08:35:24.826Z,3.64
2022-11-29T08:37:54.389Z,3.70
2022-11-29T08:40:24.335Z,3.75
2022-11-29T08:42:57.226Z,3.77
2022-11-29T08:45:26.782Z,3.77
2022-11-29T08:47:55.314Z,3.81
2022-11-29T08:50:23.913Z,3.82
2022-11-29T08:53:11.221Z,3.86
2022-11-29T08:55:40.993Z,3.87
2022-11-29T08:58:11.361Z,3.91
2022-11-29T09:00:40.407Z,3.95
2022-11-29T09:03:27.781Z,3.99
2022-11-29T09:05:57.726Z,4.09
2022-11-29T09:08:26.020Z,4.17
2022-11-29T09:10:55.374Z,4.21
2022-11-29T09:13:23.957Z,4.27
2022-11-29T09:15:52.235Z,4.30
2022-11-29T09:18:20.819Z,4.33
2022-11-29T09:20:49.607Z,4.38
2022-11-29T09:23:18.191Z,4.40
2022-11-29T09:25:50.154Z,4.38
2022-11-29T09:28:18.840Z,4.38
2022-11-29T09:30:47.220Z,4.38
2022-11-29T09:33:15.977Z,4.42
2022-11-29T09:35:44.387Z,4.44
2022-11-29T09:38:13.688Z,4.43
2022-11-29T09:40:49.304Z,4.41
2022-11-29T09:43:27.573Z,4.44
2022-11-29T09:46:03.666Z,4.47
2022-11-29T09:48:43.046Z,4.50
2022-11-29T09:51:31.864Z,4.55
2022-11-29T09:54:24.350Z,4.60
2022-11-29T09:56:55.598Z,4.62
2022-11-29T09:59:28.175Z,4.64
2022-11-29T10:02:20.882Z,4.68
2022-11-29T10:04:53.866Z,4.69
2022-11-29T10:07:34.756Z,4.68
2022-11-29T10:10:08.794Z,4.69
2022-11-29T10:12:52.634Z,4.68
2022-11-29T10:15:23.234Z,4.67
2022-11-29T10:18:15.000Z,4.70
2022-11-29T10:20:49.069Z,4.72
2022-11-29T10:23:23.937Z,4.74
2022-11-29T10:25:53.522Z,4.78
2022-11-29T10:28:24.177Z,4.78
2022-11-29T10:30:56.903Z,4.78
2022-11-29T10:33:34.863Z,4.77
2022-11-29T10:36:05.006Z,4.79
2022-11-29T10:38:33.365Z,4.79
2022-11-29T10:41:06.655Z,4.79
2022-11-29T10:43:37.698Z,4.80
2022-11-29T10:46:10.822Z,4.81
2022-11-29T10:48:39.472Z,4.76
2022-11-29T10:51:15.740Z,4.72
2022-11-29T10:53:45.243Z,4.68
2022-11-29T10:56:22.508Z,4.68
2022-11-29T10:58:55.723Z,4.66
2022-11-29T11:01:24.953Z,4.63
2022-11-29T11:03:54.377Z,4.60
2022-11-29T11:06:23.113Z,4.56
2022-11-29T11:08:55.920Z,4.53
2022-11-29T11:11:34.069Z,4.52
2022-11-29T11:14:25.627Z,4.52
2022-11-29T11:16:54.359Z,4.50
2022-11-29T11:19:33.344Z,4.48
2022-11-29T11:22:03.052Z,4.46
2022-11-29T11:24:33.378Z,4.43
2022-11-29T11:27:02.000Z,4.45
2022-11-29T11:29:41.708Z,4.49
2022-11-29T11:32:17.266Z,4.51
2022-11-29T11:34:53.172Z,4.52
2022-11-29T11:37:35.938Z,4.51
2022-11-29T11:40:23.575Z,4.51
2022-11-29T11:42:52.341Z,4.53
2022-11-29T11:45:23.561Z,4.56
2022-11-29T11:47:57.194Z,4.58
2022-11-29T11:50:30.795Z,4.60
2022-11-29T11:53:02.739Z,4.60
2022-11-29T11:55:42.811Z,4.58
2022-11-29T11:58:14.775Z,4.60
2022-11-29T12:03:37.934Z,4.65
2022-11-29T12:06:06.536Z,4.68
2022-11-29T12:08:36.771Z,4.67
2022-11-29T12:11:07.603Z,4.66
2022-11-29T12:13:40.174Z,4.62
2022-11-29T12:16:13.811Z,4.59
2022-11-29T12:18:44.510Z,4.59
2022-11-29T12:21:24.169Z,4.61
2022-11-29T12:24:15.699Z,4.57
2022-11-29T12:26:59.723Z,4.56
2022-11-29T12:29:30.224Z,4.55
2022-11-29T12:32:31.194Z,4.56
2022-11-29T12:35:09.202Z,4.56
2022-11-29T12:37:37.786Z,4.54
2022-11-29T12:40:06.579Z,4.51
2022-11-29T12:42:44.940Z,4.50
2022-11-29T12:45:19.616Z,4.49
2022-11-29T12:48:01.099Z,4.48
2022-11-29T12:50:32.764Z,4.48
2022-11-29T12:53:04.004Z,4.46
2022-11-29T12:55:43.965Z,4.45
2022-11-29T12:58:15.163Z,4.45
2022-11-29T13:00:49.932Z,4.44
2022-11-29T13:03:24.449Z,4.43
2022-11-29T13:05:53.242Z,4.42
2022-11-29T13:08:21.818Z,4.37
2022-11-29T13:11:09.659Z,4.32
2022-11-29T13:13:38.181Z,4.29
2022-11-29T13:16:09.524Z,4.29
2022-11-29T13:18:58.145Z,4.23
2022-11-29T13:21:32.215Z,4.21
2022-11-29T13:24:08.680Z,4.17
2022-11-29T13:26:39.030Z,4.16
2022-11-29T13:29:10.548Z,4.13
2022-11-29T13:31:39.534Z,4.12
2022-11-29T13:34:25.181Z,4.10
2022-11-29T13:36:53.529Z,4.06
2022-11-29T13:39:24.855Z,4.04
2022-11-29T13:42:08.750Z,4.01
2022-11-29T13:44:46.491Z,4.00
2022-11-29T13:47:17.284Z,3.99
2022-11-29T13:49:50.373Z,3.97
2022-11-29T13:52:42.311Z,3.96
2022-11-29T13:55:18.680Z,3.94
2022-11-29T13:58:14.809Z,3.93
2022-11-29T14:00:48.710Z,3.91
2022-11-29T14:03:26.714Z,3.90
2022-11-29T14:06:10.353Z,3.86
2022-11-29T14:11:50.032Z,3.83
2022-11-29T14:14:25.255Z,3.80
2022-11-29T14:16:58.021Z,3.77
2022-11-29T14:19:33.784Z,3.78
2022-11-29T14:22:03.101Z,3.78
2022-11-29T14:24:37.613Z,3.77
2022-11-29T14:27:06.099Z,3.75
2022-11-29T14:29:50.311Z,3.71
2022-11-29T14:32:24.056Z,3.65
2022-11-29T14:35:12.810Z,3.59
2022-11-29T14:37:59.415Z,3.56
2022-11-29T14:40:40.186Z,3.56
2022-11-29T14:43:22.216Z,3.54
2022-11-29T14:46:28.893Z,3.53
2022-11-29T14:48:57.750Z,3.51
2022-11-29T14:51:31.147Z,3.49
2022-11-29T14:54:13.350Z,3.47
2022-11-29T14:56:43.045Z,3.46
2022-11-29T14:59:30.403Z,3.43
2022-11-29T15:02:07.907Z,3.39
2022-11-29T15:04:38.306Z,3.37
2022-11-29T15:07:11.506Z,3.34
2022-11-29T15:09:41.926Z,3.34
2022-11-29T15:12:14.501Z,3.32
2022-11-29T15:15:18.310Z,3.32
2022-11-29T15:18:01.425Z,3.32
2022-11-29T15:20:29.797Z,3.32
2022-11-29T15:23:01.180Z,3.33
2022-11-29T15:25:32.173Z,3.34
2022-11-29T15:28:02.535Z,3.33
2022-11-29T15:30:35.414Z,3.32
2022-11-29T15:33:05.916Z,3.32
2022-11-29T15:35:35.002Z,3.32
2022-11-29T15:38:04.034Z,3.30
2022-11-29T15:40:36.616Z,3.28
2022-11-29T15:43:17.484Z,3.27
2022-11-29T15:45:47.191Z,3.24
2022-11-29T15:48:22.022Z,3.22
2022-11-29T15:50:53.678Z,3.23
2022-11-29T15:53:26.358Z,3.21
2022-11-29T15:55:57.166Z,3.21
2022-11-29T15:58:27.930Z,3.21
2022-11-29T16:00:57.512Z,3.21
2022-11-29T16:03:27.143Z,3.20
2022-11-29T16:06:15.901Z,3.20
2022-11-29T16:08:44.539Z,3.20
2022-11-29T16:11:16.141Z,3.20
2022-11-29T16:13:59.165Z,3.21
2022-11-29T16:16:28.879Z,3.22
2022-11-29T16:19:08.210Z,3.22
2022-11-29T16:21:36.724Z,3.23
2022-11-29T16:24:13.365Z,3.25
2022-11-29T16:26:44.215Z,3.24
2022-11-29T16:29:34.185Z,3.25
2022-11-29T16:32:15.348Z,3.25
2022-11-29T16:34:44.935Z,3.26
2022-11-29T16:37:24.516Z,3.27
2022-11-29T16:39:57.098Z,3.24
2022-11-29T16:42:30.389Z,3.23
2022-11-29T16:44:59.381Z,3.24
2022-11-29T16:47:30.015Z,3.23
2022-11-29T16:50:17.127Z,3.23
2022-11-29T16:52:45.924Z,3.23
2022-11-29T16:55:15.631Z,3.23
2022-11-29T16:57:44.830Z,3.23
2022-11-29T17:00:22.939Z,3.22
2022-11-29T17:02:51.208Z,3.22
2022-11-29T17:05:19.902Z,3.21
2022-11-29T17:07:48.382Z,3.22
2022-11-29T17:10:18.564Z,3.23
2022-11-29T17:12:48.383Z,3.25
2022-11-29T17:15:17.000Z,3.25
2022-11-29T17:17:45.481Z,3.25
2022-11-29T17:20:14.476Z,3.25
2022-11-29T17:22:42.958Z,3.27
2022-11-29T17:25:11.540Z,3.28
2022-11-29T17:27:40.434Z,3.30
2022-11-29T17:30:09.095Z,3.33
2022-11-29T17:32:38.222Z,3.36
2022-11-29T17:35:07.620Z,3.39
2022-11-29T17:37:36.099Z,3.41
2022-11-29T17:40:04.856Z,3.44
2022-11-29T17:42:33.576Z,3.47
2022-11-29T17:45:02.059Z,3.50
2022-11-29T17:47:30.640Z,3.53
2022-11-29T17:49:59.326Z,3.55
2022-11-29T17:52:27.809Z,3.58
2022-11-29T17:54:56.291Z,3.61
2022-11-29T17:57:25.283Z,3.63
2022-11-29T17:59:53.708Z,3.68
2022-11-29T18:02:22.196Z,3.70
2022-11-29T18:04:50.933Z,3.72
2022-11-29T18:07:19.501Z,3.73
2022-11-29T18:09:49.228Z,3.73
2022-11-29T18:12:17.811Z,3.77
2022-11-29T18:14:46.499Z,3.79
2022-11-29T18:17:14.817Z,3.81
2022-11-29T18:19:43.444Z,3.83
2022-11-29T18:22:12.364Z,3.85
2022-11-29T18:24:44.523Z,3.88
2022-11-29T18:27:13.515Z,3.87
2022-11-29T18:29:42.098Z,3.87
2022-11-29T18:32:10.549Z,3.88
2022-11-29T18:34:39.094Z,3.90
2022-11-29T18:37:13.980Z,3.89
2022-11-29T18:39:45.712Z,3.87
2022-11-29T18:42:14.445Z,3.86
2022-11-29T18:44:42.718Z,3.86
2022-11-29T18:47:11.473Z,3.89
2022-11-29T18:49:39.783Z,3.90
2022-11-29T18:52:08.163Z,3.91
2022-11-29T18:54:36.568Z,3.91
2022-11-29T18:57:05.292Z,3.93
2022-11-29T18:59:33.605Z,3.96
2022-11-29T19:02:02.190Z,3.98
2022-11-29T19:04:30.979Z,4.00
2022-11-29T19:06:59.255Z,4.01
2022-11-29T19:09:27.940Z,4.04
2022-11-29T19:11:56.695Z,4.05
2022-11-29T19:14:25.012Z,4.05
2022-11-29T19:17:35.667Z,4.06
2022-11-29T19:20:08.973Z,4.06
2022-11-29T19:22:37.554Z,4.07
2022-11-29T19:25:06.382Z,4.08
2022-11-29T19:27:35.029Z,4.07
2022-11-29T19:30:03.724Z,4.06
2022-11-29T19:32:32.201Z,4.04
2022-11-29T19:35:00.679Z,4.03
2022-11-29T19:37:29.176Z,4.04
2022-11-29T19:39:57.846Z,4.00
2022-11-29T19:42:26.374Z,3.98
2022-11-29T19:47:45.103Z,3.94
2022-11-29T19:50:13.588Z,3.92
2022-11-29T19:53:22.088Z,3.88
2022-11-29T19:59:38.191Z,3.86
2022-11-29T20:02:06.865Z,3.86
2022-11-29T20:04:35.225Z,3.85
2022-11-29T20:07:03.976Z,3.83
2022-11-29T20:09:32.585Z,3.82
2022-11-29T20:12:00.969Z,3.82
2022-11-29T20:14:29.702Z,3.81
2022-11-29T20:16:58.213Z,3.81
2022-11-29T20:19:26.489Z,3.84
2022-11-29T20:21:55.148Z,3.83
2022-11-29T20:24:23.761Z,3.82
2022-11-29T20:26:52.238Z,3.81
2022-11-29T20:29:22.198Z,3.80
2022-11-29T20:31:51.392Z,3.80
2022-11-29T20:34:20.651Z,3.78
2022-11-29T20:37:07.877Z,3.77
2022-11-29T20:39:53.159Z,3.76
2022-11-29T20:42:41.713Z,3.76
2022-11-29T20:45:13.667Z,3.72
2022-11-29T20:47:54.228Z,3.70
2022-11-29T20:50:23.970Z,3.66
2022-11-29T20:52:52.529Z,3.65
2022-11-29T20:55:21.823Z,3.63
2022-11-29T20:57:50.615Z,3.62
2022-11-29T21:00:19.065Z,3.61
2022-11-29T21:02:47.475Z,3.58
2022-11-29T21:05:16.776Z,3.56
2022-11-29T21:07:46.029Z,3.55
2022-11-29T21:10:17.451Z,3.54
2022-11-29T21:12:46.415Z,3.51
2022-11-29T21:15:15.004Z,3.50
2022-11-29T21:17:43.653Z,3.49
2022-11-29T21:20:21.393Z,3.49
2022-11-29T21:23:02.359Z,3.49
2022-11-29T21:25:36.774Z,3.50
2022-11-29T21:28:08.946Z,3.48
2022-11-29T21:30:37.632Z,3.49
2022-11-29T21:33:06.158Z,3.49
2022-11-29T21:35:34.668Z,3.45
2022-11-29T21:38:03.807Z,3.45
2022-11-29T21:40:33.609Z,3.43
2022-11-29T21:43:02.293Z,3.43
2022-11-29T21:45:30.725Z,3.43
2022-11-29T21:48:02.225Z,3.43
2022-11-29T21:50:30.606Z,3.41
2022-11-29T21:52:59.291Z,3.39
2022-11-29T21:55:32.111Z,3.38
2022-11-29T21:58:00.657Z,3.37
2022-11-29T22:00:33.064Z,3.37
2022-11-29T22:03:05.049Z,3.36
2022-11-29T22:05:33.577Z,3.36
2022-11-29T22:08:02.190Z,3.37
2022-11-29T22:10:32.690Z,3.37
2022-11-29T22:13:01.172Z,3.37
2022-11-29T22:15:29.960Z,3.38
2022-11-29T22:17:58.442Z,3.39
2022-11-29T22:20:26.756Z,3.40
2022-11-29T22:22:58.677Z,3.41
2022-11-29T22:25:27.880Z,3.42
2022-11-29T22:27:56.160Z,3.42
2022-11-29T22:30:24.796Z,3.41
2022-11-29T22:32:53.530Z,3.41
2022-11-29T22:35:21.884Z,3.42
2022-11-29T22:37:50.287Z,3.41
2022-11-29T22:40:19.371Z,3.39
2022-11-29T22:42:47.778Z,3.40
2022-11-29T22:45:16.246Z,3.39
2022-11-29T22:47:44.728Z,3.39
2022-11-29T22:50:13.211Z,3.39
2022-11-29T22:52:41.486Z,3.39
2022-11-29T22:55:10.479Z,3.40
2022-11-29T22:57:38.858Z,3.39
2022-11-29T23:00:07.649Z,3.39
2022-11-29T23:02:36.364Z,3.39
2022-11-29T23:05:04.916Z,3.37
2022-11-29T23:07:33.471Z,3.37
2022-11-29T23:10:02.803Z,3.34
2022-11-29T23:12:31.078Z,3.32
2022-11-29T23:14:59.602Z,3.32
2022-11-29T23:17:28.555Z,3.30
2022-11-29T23:19:56.830Z,3.29
2022-11-29T23:22:25.312Z,3.28
2022-11-29T23:24:53.998Z,3.27
2022-11-29T23:27:22.273Z,3.27
2022-11-29T23:29:50.551Z,3.26
2022-11-29T23:32:19.545Z,3.26
2022-11-29T23:34:48.501Z,3.27
2022-11-29T23:37:17.019Z,3.25
2022-11-29T23:39:45.707Z,3.24
2022-11-29T23:42:14.392Z,3.21
2022-11-29T23:44:42.672Z,3.20
2022-11-29T23:47:11.254Z,3.18
2022-11-29T23:49:40.101Z,3.18
2022-11-29T23:52:08.420Z,3.17
2022-11-29T23:54:37.004Z,3.15
2022-11-29T23:57:05.901Z,3.15
2022-11-29T23:59:34.588Z,3.14
